createdAt,value
2023-03-19T00:00:30.862Z,20.15
2023-03-19T00:05:33.868Z,15.13
2023-03-19T00:10:39.596Z,14.83
2023-03-19T00:15:44.016Z,17.90
2023-03-19T00:20:47.684Z,15.60
2023-03-19T00:25:50.683Z,17.80
2023-03-19T00:30:56.809Z,16.60
2023-03-19T00:36:01.265Z,17.27
2023-03-19T00:47:18.584Z,15.35
2023-03-19T00:52:23.560Z,16.95
2023-03-19T00:57:27.639Z,20.38
2023-03-19T01:07:36.405Z,20.55
2023-03-19T01:12:39.163Z,17.63
2023-03-19T01:17:43.036Z,24.30
2023-03-19T01:22:49.006Z,19.23
2023-03-19T01:27:52.760Z,23.20
2023-03-19T01:33:05.566Z,20.45
2023-03-19T01:38:10.862Z,21.13
2023-03-19T01:43:15.140Z,20.52
2023-03-19T01:48:22.407Z,20.60
2023-03-19T01:53:28.708Z,20.05
2023-03-19T01:58:32.489Z,21.85
2023-03-19T02:08:41.829Z,20.70
2023-03-19T02:13:46.276Z,19.08
2023-03-19T02:18:53.546Z,23.42
2023-03-19T02:24:01.894Z,21.10
2023-03-19T02:29:09.508Z,16.10
2023-03-19T02:34:38.510Z,19.38
2023-03-19T02:39:44.667Z,21.10
2023-03-19T02:44:50.652Z,13.57
2023-03-19T02:49:56.107Z,14.25
2023-03-19T02:54:58.797Z,5.68
2023-03-19T03:00:02.833Z,12.10
2023-03-19T03:05:07.706Z,9.50
2023-03-19T03:10:12.547Z,10.20
2023-03-19T03:15:17.688Z,3.40
2023-03-19T03:20:21.218Z,13.57
2023-03-19T03:25:24.237Z,11.57
2023-03-19T03:30:29.018Z,10.80
2023-03-19T03:35:33.545Z,12.95
2023-03-19T03:40:38.495Z,8.48
2023-03-19T03:45:45.069Z,5.97
2023-03-19T03:50:48.014Z,9.82
2023-03-19T03:55:54.742Z,5.93
2023-03-19T04:01:02.045Z,4.03
2023-03-19T04:06:07.370Z,8.88
2023-03-19T04:11:13.345Z,8.68
2023-03-19T04:16:18.836Z,3.53
2023-03-19T04:21:21.730Z,11.75
2023-03-19T04:26:25.557Z,8.20
2023-03-19T04:31:33.718Z,5.47
2023-03-19T04:41:39.889Z,5.30
2023-03-19T04:46:46.336Z,8.38
2023-03-19T04:51:49.362Z,11.82
2023-03-19T04:56:53.092Z,9.15
2023-03-19T05:01:57.416Z,12.43
2023-03-19T05:12:07.236Z,14.77
2023-03-19T05:17:13.027Z,4.40
2023-03-19T05:22:20.985Z,7.57
2023-03-19T05:27:24.924Z,13.07
2023-03-19T05:32:35.973Z,7.10
2023-03-19T05:37:38.640Z,6.18
2023-03-19T05:42:41.387Z,12.60
2023-03-19T05:47:58.424Z,6.72
2023-03-19T05:53:01.751Z,7.05
2023-03-19T05:58:09.037Z,9.33
2023-03-19T06:03:16.941Z,8.48
2023-03-19T06:08:21.775Z,9.10
2023-03-19T06:13:28.302Z,5.45
2023-03-19T06:18:33.678Z,11.43
2023-03-19T06:23:38.881Z,10.98
2023-03-19T06:28:42.727Z,6.90
2023-03-19T06:33:48.542Z,6.93
2023-03-19T06:38:52.442Z,11.18
2023-03-19T06:43:58.077Z,13.63
2023-03-19T06:49:02.901Z,8.85
2023-03-19T06:54:06.444Z,13.35
2023-03-19T06:59:14.299Z,11.35
2023-03-19T07:04:26.891Z,12.13
2023-03-19T07:09:29.751Z,14.25
2023-03-19T07:14:32.801Z,12.63
2023-03-19T07:19:47.299Z,10.82
2023-03-19T07:24:51.327Z,9.93
2023-03-19T07:30:04.340Z,12.60
2023-03-19T07:35:10.482Z,10.60
2023-03-19T07:40:23.198Z,5.78
2023-03-19T07:45:27.323Z,11.35
2023-03-19T07:50:32.991Z,9.98
2023-03-19T07:55:38.489Z,9.10
2023-03-19T08:00:42.375Z,5.43
2023-03-19T08:05:50.194Z,7.10
2023-03-19T08:10:55.270Z,7.55
2023-03-19T08:15:59.935Z,6.78
2023-03-19T08:21:08.817Z,8.05
2023-03-19T08:26:12.103Z,5.80
2023-03-19T08:31:15.256Z,10.95
2023-03-19T08:36:27.555Z,5.90
2023-03-19T08:41:31.203Z,7.45
2023-03-19T08:46:34.670Z,6.65
2023-03-19T08:51:39.301Z,4.97
2023-03-19T08:56:42.772Z,3.88
2023-03-19T09:01:46.625Z,7.47
2023-03-19T09:06:52.305Z,4.85
2023-03-19T09:11:56.122Z,4.82
2023-03-19T09:16:59.505Z,7.65
2023-03-19T09:22:07.996Z,6.03
2023-03-19T09:27:11.605Z,3.03
2023-03-19T09:32:15.491Z,5.10
2023-03-19T09:37:23.338Z,5.30
2023-03-19T09:42:32.935Z,7.05
2023-03-19T09:47:37.694Z,7.55
2023-03-19T09:52:47.150Z,5.65
2023-03-19T09:57:49.844Z,6.32
2023-03-19T10:03:06.543Z,6.25
2023-03-19T10:08:20.892Z,5.97
2023-03-19T10:13:38.592Z,5.00
2023-03-19T10:18:45.072Z,7.15
2023-03-19T10:23:52.059Z,5.55
2023-03-19T10:28:59.155Z,4.55
2023-03-19T10:34:17.408Z,5.10
2023-03-19T10:39:24.828Z,3.45
2023-03-19T10:44:31.236Z,5.40
2023-03-19T10:49:48.143Z,4.55
2023-03-19T10:54:56.227Z,6.55
2023-03-19T11:00:04.351Z,5.13
2023-03-19T11:05:09.491Z,4.20
2023-03-19T11:10:16.337Z,4.35
2023-03-19T11:15:22.504Z,3.72
2023-03-19T11:20:29.683Z,5.57
2023-03-19T11:25:36.925Z,6.22
2023-03-19T11:30:55.180Z,5.20
2023-03-19T11:36:05.257Z,4.18
2023-03-19T11:41:16.765Z,4.05
2023-03-19T11:46:36.781Z,6.03
2023-03-19T11:51:43.769Z,4.82
2023-03-19T11:56:49.766Z,5.40
2023-03-19T12:02:06.877Z,3.78
2023-03-19T12:07:15.391Z,5.93
2023-03-19T12:12:26.751Z,5.57
2023-03-19T12:17:41.325Z,4.68
2023-03-19T12:22:52.559Z,4.63
2023-03-19T12:27:59.613Z,4.78
2023-03-19T12:33:13.697Z,8.52
2023-03-19T12:38:19.635Z,4.28
2023-03-19T12:43:26.764Z,5.13
2023-03-19T12:48:31.832Z,3.60
2023-03-19T12:53:41.638Z,2.63
2023-03-19T12:58:52.341Z,6.05
2023-03-19T13:03:57.939Z,3.53
2023-03-19T13:09:05.980Z,7.63
2023-03-19T13:14:15.825Z,3.05
2023-03-19T13:19:21.481Z,4.53
2023-03-19T13:24:26.487Z,3.40
2023-03-19T13:29:32.449Z,4.20
2023-03-19T13:34:36.577Z,3.38
2023-03-19T13:39:46.454Z,6.65
2023-03-19T13:44:52.293Z,6.45
2023-03-19T13:50:05.632Z,6.25
2023-03-19T13:55:30.385Z,3.70
2023-03-19T14:00:55.384Z,3.47
2023-03-19T14:06:00.987Z,5.03
2023-03-19T14:11:05.838Z,5.07
2023-03-19T14:16:16.285Z,3.60
2023-03-19T14:21:32.668Z,4.93
2023-03-19T14:26:36.162Z,5.90
2023-03-19T14:31:42.823Z,4.95
2023-03-19T14:36:50.611Z,5.28
2023-03-19T14:41:57.689Z,5.18
2023-03-19T14:47:21.526Z,5.18
2023-03-19T14:52:31.859Z,5.35
2023-03-19T14:57:43.548Z,4.65
2023-03-19T15:02:47.860Z,3.45
2023-03-19T15:07:54.475Z,3.75
2023-03-19T15:13:13.809Z,3.50
2023-03-19T15:18:20.831Z,5.57
2023-03-19T15:23:35.864Z,4.72
2023-03-19T15:28:46.086Z,3.30
2023-03-19T15:33:49.048Z,4.43
2023-03-19T15:38:56.438Z,4.32
2023-03-19T15:44:00.253Z,6.38
2023-03-19T15:49:04.903Z,3.00
2023-03-19T15:54:10.674Z,5.32
2023-03-19T15:59:14.411Z,5.85
2023-03-19T16:04:19.797Z,8.77
2023-03-19T16:09:26.207Z,4.28
2023-03-19T16:14:34.138Z,6.70
2023-03-19T16:19:37.883Z,3.85
2023-03-19T16:24:42.726Z,4.80
2023-03-19T16:29:46.959Z,3.90
2023-03-19T16:34:52.495Z,6.00
2023-03-19T16:39:57.560Z,6.35
2023-03-19T16:45:03.813Z,6.45
2023-03-19T16:50:07.690Z,3.53
2023-03-19T16:55:18.460Z,12.15
2023-03-19T17:00:32.032Z,6.28
2023-03-19T17:10:42.185Z,7.93
2023-03-19T17:15:46.710Z,6.85
2023-03-19T17:20:51.969Z,10.07
2023-03-19T17:25:56.212Z,5.70
2023-03-19T17:31:00.552Z,4.25
2023-03-19T17:41:16.639Z,7.63
2023-03-19T17:46:20.620Z,4.85
2023-03-19T17:51:24.878Z,5.60
2023-03-19T18:01:34.005Z,4.60
2023-03-19T18:06:41.133Z,5.13
2023-03-19T18:11:44.301Z,6.72
2023-03-19T18:16:49.070Z,5.90
2023-03-19T18:21:52.478Z,8.23
2023-03-19T18:32:03.523Z,5.68
2023-03-19T18:37:06.196Z,11.57
2023-03-19T18:42:09.080Z,11.93
2023-03-19T18:47:17.189Z,13.30
2023-03-19T18:52:30.399Z,12.50
2023-03-19T18:57:36.194Z,14.27
2023-03-19T19:02:54.903Z,11.38
2023-03-19T19:07:59.012Z,9.88
2023-03-19T19:13:02.399Z,9.73
2023-03-19T19:18:14.809Z,10.32
2023-03-19T19:23:18.182Z,9.63
2023-03-19T19:33:27.766Z,12.52
2023-03-19T19:38:31.472Z,9.40
2023-03-19T19:43:42.810Z,11.80
2023-03-19T19:48:48.773Z,15.63
2023-03-19T19:53:51.874Z,16.02
2023-03-19T19:58:55.590Z,12.17
2023-03-19T20:04:05.836Z,12.43
2023-03-19T20:09:09.091Z,12.15
2023-03-19T20:19:20.208Z,14.00
2023-03-19T20:24:24.026Z,9.43
2023-03-19T20:29:28.772Z,10.65
2023-03-19T20:39:45.583Z,9.95
2023-03-19T20:44:49.657Z,10.02
2023-03-19T20:49:53.377Z,9.23
2023-03-19T21:00:03.332Z,6.32
2023-03-19T21:05:08.280Z,7.55
2023-03-19T21:10:20.639Z,4.60
2023-03-19T21:15:27.280Z,5.63
2023-03-19T21:20:34.763Z,4.30
2023-03-19T21:25:47.907Z,7.80
2023-03-19T21:30:52.898Z,7.60
2023-03-19T21:35:57.678Z,7.78
2023-03-19T21:41:02.380Z,6.60
2023-03-19T21:46:23.225Z,8.07
2023-03-19T21:51:28.645Z,6.65
2023-03-19T21:56:33.822Z,10.00
2023-03-19T22:01:39.177Z,7.88
2023-03-19T22:06:43.122Z,6.13
2023-03-19T22:16:52.863Z,9.40
2023-03-19T22:21:58.233Z,6.50
2023-03-19T22:27:16.202Z,10.38
2023-03-19T22:32:20.581Z,5.22
2023-03-19T22:37:28.021Z,5.25
2023-03-19T22:42:30.907Z,11.07
2023-03-19T22:47:37.165Z,9.07
2023-03-19T22:52:40.049Z,8.32
2023-03-19T22:57:43.681Z,7.03
2023-03-19T23:02:49.865Z,8.30
2023-03-19T23:07:56.485Z,7.90
2023-03-19T23:13:01.090Z,8.15
2023-03-19T23:18:10.704Z,7.13
2023-03-19T23:23:15.317Z,8.05
2023-03-19T23:28:20.595Z,4.53
2023-03-19T23:33:26.947Z,8.43
2023-03-19T23:38:30.367Z,5.60
2023-03-19T23:43:35.509Z,7.97
2023-03-19T23:48:40.268Z,6.85
2023-03-19T23:53:44.309Z,3.95
2023-03-19T23:58:48.161Z,4.90
